sensor_id;sensor_type;location;lat;lon;timestamp;P1;durP1;ratioP1;P2;durP2;ratioP2
43152;SDS011;28756;49.064;9.290;2022-10-28T00:00:51;4.07;;;1.85;;
43152;SDS011;28756;49.064;9.290;2022-10-28T00:03:17;6.38;;;2.10;;
43152;SDS011;28756;49.064;9.290;2022-10-28T00:05:44;4.15;;;2.05;;
43152;SDS011;28756;49.064;9.290;2022-10-28T00:08:10;5.13;;;1.90;;
43152;SDS011;28756;49.064;9.290;2022-10-28T00:10:36;5.95;;;2.15;;
43152;SDS011;28756;49.064;9.290;2022-10-28T00:13:02;2.95;;;2.00;;
43152;SDS011;28756;49.064;9.290;2022-10-28T00:15:27;2.67;;;1.85;;
43152;SDS011;28756;49.064;9.290;2022-10-28T00:17:53;5.22;;;2.15;;
43152;SDS011;28756;49.064;9.290;2022-10-28T00:20:19;2.90;;;2.00;;
43152;SDS011;28756;49.064;9.290;2022-10-28T00:22:44;2.15;;;1.70;;
43152;SDS011;28756;49.064;9.290;2022-10-28T00:25:10;4.03;;;1.70;;
43152;SDS011;28756;49.064;9.290;2022-10-28T00:27:36;3.30;;;1.73;;
43152;SDS011;28756;49.064;9.290;2022-10-28T00:30:02;4.68;;;2.13;;
43152;SDS011;28756;49.064;9.290;2022-10-28T00:32:28;3.47;;;1.73;;
43152;SDS011;28756;49.064;9.290;2022-10-28T00:34:55;3.25;;;1.77;;
43152;SDS011;28756;49.064;9.290;2022-10-28T00:37:21;3.47;;;1.88;;
43152;SDS011;28756;49.064;9.290;2022-10-28T00:39:47;3.10;;;1.73;;
43152;SDS011;28756;49.064;9.290;2022-10-28T00:42:14;4.47;;;1.77;;
43152;SDS011;28756;49.064;9.290;2022-10-28T00:47:32;5.15;;;1.90;;
43152;SDS011;28756;49.064;9.290;2022-10-28T00:50:26;3.55;;;1.88;;
43152;SDS011;28756;49.064;9.290;2022-10-28T00:53:17;2.53;;;1.52;;
43152;SDS011;28756;49.064;9.290;2022-10-28T00:55:47;4.35;;;1.83;;
43152;SDS011;28756;49.064;9.290;2022-10-28T00:58:13;2.83;;;1.75;;
43152;SDS011;28756;49.064;9.290;2022-10-28T01:00:41;3.38;;;1.90;;
43152;SDS011;28756;49.064;9.290;2022-10-28T01:03:07;2.45;;;1.63;;
43152;SDS011;28756;49.064;9.290;2022-10-28T01:05:33;5.47;;;2.20;;
43152;SDS011;28756;49.064;9.290;2022-10-28T01:08:03;3.70;;;1.95;;
43152;SDS011;28756;49.064;9.290;2022-10-28T01:10:43;6.90;;;2.40;;
43152;SDS011;28756;49.064;9.290;2022-10-28T01:13:56;2.53;;;1.70;;
43152;SDS011;28756;49.064;9.290;2022-10-28T01:16:58;4.75;;;1.83;;
43152;SDS011;28756;49.064;9.290;2022-10-28T01:22:28;7.63;;;2.10;;
43152;SDS011;28756;49.064;9.290;2022-10-28T01:33:47;6.22;;;1.80;;
43152;SDS011;28756;49.064;9.290;2022-10-28T01:36:39;6.47;;;1.85;;
43152;SDS011;28756;49.064;9.290;2022-10-28T01:42:02;4.85;;;1.88;;
43152;SDS011;28756;49.064;9.290;2022-10-28T01:48:08;2.90;;;1.63;;
43152;SDS011;28756;49.064;9.290;2022-10-28T01:50:45;7.90;;;2.08;;
43152;SDS011;28756;49.064;9.290;2022-10-28T01:53:26;5.60;;;2.28;;
43152;SDS011;28756;49.064;9.290;2022-10-28T01:55:58;3.42;;;2.30;;
43152;SDS011;28756;49.064;9.290;2022-10-28T01:58:30;3.72;;;1.90;;
43152;SDS011;28756;49.064;9.290;2022-10-28T02:00:58;5.97;;;2.05;;
43152;SDS011;28756;49.064;9.290;2022-10-28T02:03:28;3.58;;;1.85;;
43152;SDS011;28756;49.064;9.290;2022-10-28T02:05:54;3.45;;;1.60;;
43152;SDS011;28756;49.064;9.290;2022-10-28T02:08:43;5.15;;;1.85;;
43152;SDS011;28756;49.064;9.290;2022-10-28T02:26:30;2.97;;;1.70;;
43152;SDS011;28756;49.064;9.290;2022-10-28T02:29:19;2.97;;;1.90;;
43152;SDS011;28756;49.064;9.290;2022-10-28T02:32:02;3.50;;;1.90;;
43152;SDS011;28756;49.064;9.290;2022-10-28T02:34:34;4.95;;;1.90;;
43152;SDS011;28756;49.064;9.290;2022-10-28T02:37:07;4.55;;;2.10;;
43152;SDS011;28756;49.064;9.290;2022-10-28T02:39:40;5.18;;;1.92;;
43152;SDS011;28756;49.064;9.290;2022-10-28T02:42:56;4.38;;;2.00;;
43152;SDS011;28756;49.064;9.290;2022-10-28T02:45:06;4.03;;;2.30;;
43152;SDS011;28756;49.064;9.290;2022-10-28T02:47:40;3.47;;;1.90;;
43152;SDS011;28756;49.064;9.290;2022-10-28T02:50:19;5.10;;;2.67;;
43152;SDS011;28756;49.064;9.290;2022-10-28T02:52:57;4.45;;;2.42;;
43152;SDS011;28756;49.064;9.290;2022-10-28T02:55:28;4.10;;;1.85;;
43152;SDS011;28756;49.064;9.290;2022-10-28T02:58:01;5.78;;;2.55;;
43152;SDS011;28756;49.064;9.290;2022-10-28T03:00:28;2.78;;;1.85;;
43152;SDS011;28756;49.064;9.290;2022-10-28T03:02:54;3.45;;;2.05;;
43152;SDS011;28756;49.064;9.290;2022-10-28T03:05:19;2.88;;;1.92;;
43152;SDS011;28756;49.064;9.290;2022-10-28T03:07:45;6.25;;;2.03;;
43152;SDS011;28756;49.064;9.290;2022-10-28T03:10:11;4.57;;;2.00;;
43152;SDS011;28756;49.064;9.290;2022-10-28T03:12:36;6.90;;;2.50;;
43152;SDS011;28756;49.064;9.290;2022-10-28T03:15:02;4.05;;;1.83;;
43152;SDS011;28756;49.064;9.290;2022-10-28T03:17:29;4.30;;;2.00;;
43152;SDS011;28756;49.064;9.290;2022-10-28T03:19:55;3.97;;;1.73;;
43152;SDS011;28756;49.064;9.290;2022-10-28T03:22:20;4.47;;;2.00;;
43152;SDS011;28756;49.064;9.290;2022-10-28T03:24:46;5.82;;;2.05;;
43152;SDS011;28756;49.064;9.290;2022-10-28T03:27:12;2.28;;;1.40;;
43152;SDS011;28756;49.064;9.290;2022-10-28T03:29:37;2.88;;;1.70;;
43152;SDS011;28756;49.064;9.290;2022-10-28T03:32:03;3.97;;;1.90;;
43152;SDS011;28756;49.064;9.290;2022-10-28T03:34:29;6.13;;;2.50;;
43152;SDS011;28756;49.064;9.290;2022-10-28T03:36:55;3.53;;;1.98;;
43152;SDS011;28756;49.064;9.290;2022-10-28T03:39:21;5.10;;;2.10;;
43152;SDS011;28756;49.064;9.290;2022-10-28T03:41:46;3.65;;;2.28;;
43152;SDS011;28756;49.064;9.290;2022-10-28T03:44:12;4.07;;;2.05;;
43152;SDS011;28756;49.064;9.290;2022-10-28T03:46:38;6.22;;;2.15;;
43152;SDS011;28756;49.064;9.290;2022-10-28T03:49:03;3.90;;;1.95;;
43152;SDS011;28756;49.064;9.290;2022-10-28T03:51:29;6.25;;;2.10;;
43152;SDS011;28756;49.064;9.290;2022-10-28T03:53:55;3.70;;;2.20;;
43152;SDS011;28756;49.064;9.290;2022-10-28T03:56:21;3.10;;;1.98;;
43152;SDS011;28756;49.064;9.290;2022-10-28T03:58:47;4.03;;;1.98;;
43152;SDS011;28756;49.064;9.290;2022-10-28T04:01:13;4.20;;;1.63;;
43152;SDS011;28756;49.064;9.290;2022-10-28T04:03:39;6.30;;;1.85;;
43152;SDS011;28756;49.064;9.290;2022-10-28T04:06:05;12.25;;;2.60;;
43152;SDS011;28756;49.064;9.290;2022-10-28T04:08:31;3.95;;;2.00;;
43152;SDS011;28756;49.064;9.290;2022-10-28T04:10:56;5.38;;;2.20;;
43152;SDS011;28756;49.064;9.290;2022-10-28T04:13:22;3.60;;;1.75;;
43152;SDS011;28756;49.064;9.290;2022-10-28T04:15:48;2.88;;;2.00;;
43152;SDS011;28756;49.064;9.290;2022-10-28T04:18:14;3.70;;;2.00;;
43152;SDS011;28756;49.064;9.290;2022-10-28T04:20:39;4.35;;;2.05;;
43152;SDS011;28756;49.064;9.290;2022-10-28T04:23:05;2.72;;;1.85;;
43152;SDS011;28756;49.064;9.290;2022-10-28T04:25:31;4.75;;;1.92;;
43152;SDS011;28756;49.064;9.290;2022-10-28T04:27:57;4.93;;;2.00;;
43152;SDS011;28756;49.064;9.290;2022-10-28T04:30:23;6.65;;;1.77;;
43152;SDS011;28756;49.064;9.290;2022-10-28T04:32:48;3.80;;;2.00;;
43152;SDS011;28756;49.064;9.290;2022-10-28T04:35:14;2.95;;;1.80;;
43152;SDS011;28756;49.064;9.290;2022-10-28T04:37:40;4.57;;;1.90;;
43152;SDS011;28756;49.064;9.290;2022-10-28T04:40:06;3.85;;;2.22;;
43152;SDS011;28756;49.064;9.290;2022-10-28T04:42:36;4.50;;;2.30;;
43152;SDS011;28756;49.064;9.290;2022-10-28T04:45:01;4.07;;;2.17;;
43152;SDS011;28756;49.064;9.290;2022-10-28T04:47:27;5.57;;;2.03;;
43152;SDS011;28756;49.064;9.290;2022-10-28T04:49:53;3.47;;;2.03;;
43152;SDS011;28756;49.064;9.290;2022-10-28T04:52:19;4.53;;;2.05;;
43152;SDS011;28756;49.064;9.290;2022-10-28T04:54:44;3.00;;;1.88;;
43152;SDS011;28756;49.064;9.290;2022-10-28T04:57:10;3.50;;;1.95;;
43152;SDS011;28756;49.064;9.290;2022-10-28T04:59:36;4.57;;;1.80;;
43152;SDS011;28756;49.064;9.290;2022-10-28T05:02:02;4.20;;;1.55;;
43152;SDS011;28756;49.064;9.290;2022-10-28T05:04:27;3.28;;;2.28;;
43152;SDS011;28756;49.064;9.290;2022-10-28T05:06:53;7.85;;;2.47;;
43152;SDS011;28756;49.064;9.290;2022-10-28T05:09:19;4.25;;;2.55;;
43152;SDS011;28756;49.064;9.290;2022-10-28T05:11:44;3.55;;;1.80;;
43152;SDS011;28756;49.064;9.290;2022-10-28T05:14:10;3.35;;;2.13;;
43152;SDS011;28756;49.064;9.290;2022-10-28T05:16:36;6.22;;;2.33;;
43152;SDS011;28756;49.064;9.290;2022-10-28T05:19:01;4.45;;;2.10;;
43152;SDS011;28756;49.064;9.290;2022-10-28T05:21:27;4.55;;;2.80;;
43152;SDS011;28756;49.064;9.290;2022-10-28T05:23:53;5.40;;;2.20;;
43152;SDS011;28756;49.064;9.290;2022-10-28T05:26:19;4.47;;;2.20;;
43152;SDS011;28756;49.064;9.290;2022-10-28T05:28:48;5.85;;;2.20;;
43152;SDS011;28756;49.064;9.290;2022-10-28T05:31:15;8.10;;;2.78;;
43152;SDS011;28756;49.064;9.290;2022-10-28T05:33:41;7.30;;;2.70;;
43152;SDS011;28756;49.064;9.290;2022-10-28T05:36:07;6.07;;;3.42;;
43152;SDS011;28756;49.064;9.290;2022-10-28T05:38:33;4.05;;;2.20;;
43152;SDS011;28756;49.064;9.290;2022-10-28T05:40:58;7.57;;;2.42;;
43152;SDS011;28756;49.064;9.290;2022-10-28T05:43:24;4.80;;;2.80;;
43152;SDS011;28756;49.064;9.290;2022-10-28T05:45:53;6.22;;;2.42;;
43152;SDS011;28756;49.064;9.290;2022-10-28T05:48:21;4.60;;;2.00;;
43152;SDS011;28756;49.064;9.290;2022-10-28T05:50:47;3.70;;;2.05;;
43152;SDS011;28756;49.064;9.290;2022-10-28T05:53:13;6.00;;;2.10;;
43152;SDS011;28756;49.064;9.290;2022-10-28T05:55:39;5.18;;;2.45;;
43152;SDS011;28756;49.064;9.290;2022-10-28T05:58:05;5.45;;;2.10;;
43152;SDS011;28756;49.064;9.290;2022-10-28T06:00:30;5.78;;;2.33;;
43152;SDS011;28756;49.064;9.290;2022-10-28T06:03:04;8.82;;;2.10;;
43152;SDS011;28756;49.064;9.290;2022-10-28T06:05:38;6.80;;;1.95;;
43152;SDS011;28756;49.064;9.290;2022-10-28T06:08:10;7.18;;;2.10;;
43152;SDS011;28756;49.064;9.290;2022-10-28T06:10:37;6.22;;;2.22;;
43152;SDS011;28756;49.064;9.290;2022-10-28T06:13:03;8.73;;;2.60;;
43152;SDS011;28756;49.064;9.290;2022-10-28T06:15:29;6.70;;;2.30;;
43152;SDS011;28756;49.064;9.290;2022-10-28T06:17:55;7.35;;;2.05;;
43152;SDS011;28756;49.064;9.290;2022-10-28T06:20:21;7.22;;;2.60;;
43152;SDS011;28756;49.064;9.290;2022-10-28T06:22:50;4.80;;;2.10;;
43152;SDS011;28756;49.064;9.290;2022-10-28T06:25:18;7.07;;;2.30;;
43152;SDS011;28756;49.064;9.290;2022-10-28T06:27:45;4.40;;;2.08;;
43152;SDS011;28756;49.064;9.290;2022-10-28T06:30:24;8.05;;;2.45;;
43152;SDS011;28756;49.064;9.290;2022-10-28T06:32:51;4.78;;;2.17;;
43152;SDS011;28756;49.064;9.290;2022-10-28T06:35:20;10.50;;;2.17;;
43152;SDS011;28756;49.064;9.290;2022-10-28T06:37:46;3.45;;;2.08;;
43152;SDS011;28756;49.064;9.290;2022-10-28T06:40:11;7.10;;;2.22;;
43152;SDS011;28756;49.064;9.290;2022-10-28T06:42:37;5.78;;;2.10;;
43152;SDS011;28756;49.064;9.290;2022-10-28T06:45:03;8.68;;;2.67;;
43152;SDS011;28756;49.064;9.290;2022-10-28T06:47:29;7.80;;;1.90;;
43152;SDS011;28756;49.064;9.290;2022-10-28T06:49:55;5.65;;;2.30;;
43152;SDS011;28756;49.064;9.290;2022-10-28T06:52:21;7.43;;;2.58;;
43152;SDS011;28756;49.064;9.290;2022-10-28T06:54:47;5.70;;;2.17;;
43152;SDS011;28756;49.064;9.290;2022-10-28T06:57:12;5.65;;;2.10;;
43152;SDS011;28756;49.064;9.290;2022-10-28T06:59:38;7.65;;;2.05;;
43152;SDS011;28756;49.064;9.290;2022-10-28T07:02:04;7.18;;;2.00;;
43152;SDS011;28756;49.064;9.290;2022-10-28T07:04:31;4.28;;;2.00;;
43152;SDS011;28756;49.064;9.290;2022-10-28T07:06:57;6.63;;;1.80;;
43152;SDS011;28756;49.064;9.290;2022-10-28T07:09:23;3.78;;;1.88;;
43152;SDS011;28756;49.064;9.290;2022-10-28T07:11:49;5.97;;;2.10;;
43152;SDS011;28756;49.064;9.290;2022-10-28T07:14:15;3.00;;;1.92;;
43152;SDS011;28756;49.064;9.290;2022-10-28T07:16:41;4.63;;;1.55;;
43152;SDS011;28756;49.064;9.290;2022-10-28T07:19:07;4.68;;;2.03;;
43152;SDS011;28756;49.064;9.290;2022-10-28T07:21:33;6.15;;;1.63;;
43152;SDS011;28756;49.064;9.290;2022-10-28T07:23:59;4.78;;;1.92;;
43152;SDS011;28756;49.064;9.290;2022-10-28T07:26:26;8.55;;;2.05;;
43152;SDS011;28756;49.064;9.290;2022-10-28T07:28:52;7.10;;;2.13;;
43152;SDS011;28756;49.064;9.290;2022-10-28T07:31:18;3.60;;;1.60;;
43152;SDS011;28756;49.064;9.290;2022-10-28T07:33:44;6.82;;;1.90;;
43152;SDS011;28756;49.064;9.290;2022-10-28T07:36:17;6.35;;;1.70;;
43152;SDS011;28756;49.064;9.290;2022-10-28T07:38:42;4.57;;;1.95;;
43152;SDS011;28756;49.064;9.290;2022-10-28T07:41:08;4.32;;;1.90;;
43152;SDS011;28756;49.064;9.290;2022-10-28T07:43:35;5.85;;;1.85;;
43152;SDS011;28756;49.064;9.290;2022-10-28T07:46:02;5.18;;;1.60;;
43152;SDS011;28756;49.064;9.290;2022-10-28T07:48:29;5.43;;;2.03;;
43152;SDS011;28756;49.064;9.290;2022-10-28T07:50:58;4.82;;;1.63;;
43152;SDS011;28756;49.064;9.290;2022-10-28T07:53:25;5.35;;;1.98;;
43152;SDS011;28756;49.064;9.290;2022-10-28T07:55:55;9.05;;;2.50;;
43152;SDS011;28756;49.064;9.290;2022-10-28T07:58:23;5.20;;;1.70;;
43152;SDS011;28756;49.064;9.290;2022-10-28T08:00:49;6.20;;;1.90;;
43152;SDS011;28756;49.064;9.290;2022-10-28T08:03:15;6.28;;;1.83;;
43152;SDS011;28756;49.064;9.290;2022-10-28T08:05:41;8.82;;;2.25;;
43152;SDS011;28756;49.064;9.290;2022-10-28T08:08:07;5.63;;;2.00;;
43152;SDS011;28756;49.064;9.290;2022-10-28T08:10:33;5.38;;;1.67;;
43152;SDS011;28756;49.064;9.290;2022-10-28T08:12:59;4.18;;;1.75;;
43152;SDS011;28756;49.064;9.290;2022-10-28T08:15:25;5.45;;;1.70;;
43152;SDS011;28756;49.064;9.290;2022-10-28T08:17:53;3.45;;;1.63;;
43152;SDS011;28756;49.064;9.290;2022-10-28T08:20:19;4.50;;;1.60;;
43152;SDS011;28756;49.064;9.290;2022-10-28T08:22:45;3.90;;;1.58;;
43152;SDS011;28756;49.064;9.290;2022-10-28T08:25:11;3.70;;;1.40;;
43152;SDS011;28756;49.064;9.290;2022-10-28T08:27:36;3.15;;;1.50;;
43152;SDS011;28756;49.064;9.290;2022-10-28T08:30:03;10.52;;;2.33;;
43152;SDS011;28756;49.064;9.290;2022-10-28T08:32:29;5.68;;;1.60;;
43152;SDS011;28756;49.064;9.290;2022-10-28T08:34:55;4.18;;;1.50;;
43152;SDS011;28756;49.064;9.290;2022-10-28T08:37:20;12.10;;;2.35;;
43152;SDS011;28756;49.064;9.290;2022-10-28T08:39:46;5.20;;;1.65;;
43152;SDS011;28756;49.064;9.290;2022-10-28T08:42:30;5.20;;;1.67;;
43152;SDS011;28756;49.064;9.290;2022-10-28T08:45:15;6.82;;;1.90;;
43152;SDS011;28756;49.064;9.290;2022-10-28T08:51:12;4.45;;;1.50;;
43152;SDS011;28756;49.064;9.290;2022-10-28T08:53:45;3.05;;;1.33;;
43152;SDS011;28756;49.064;9.290;2022-10-28T08:56:24;3.97;;;1.98;;
43152;SDS011;28756;49.064;9.290;2022-10-28T08:59:10;6.03;;;1.80;;
43152;SDS011;28756;49.064;9.290;2022-10-28T09:01:48;4.20;;;1.65;;
43152;SDS011;28756;49.064;9.290;2022-10-28T09:07:08;6.40;;;2.30;;
43152;SDS011;28756;49.064;9.290;2022-10-28T09:09:44;4.65;;;1.50;;
43152;SDS011;28756;49.064;9.290;2022-10-28T09:18:23;3.67;;;1.70;;
43152;SDS011;28756;49.064;9.290;2022-10-28T09:21:26;4.32;;;1.30;;
43152;SDS011;28756;49.064;9.290;2022-10-28T09:24:11;8.75;;;1.63;;
43152;SDS011;28756;49.064;9.290;2022-10-28T09:29:46;4.60;;;1.60;;
43152;SDS011;28756;49.064;9.290;2022-10-28T09:32:43;5.65;;;2.22;;
43152;SDS011;28756;49.064;9.290;2022-10-28T09:35:16;10.02;;;2.20;;
43152;SDS011;28756;49.064;9.290;2022-10-28T09:37:57;7.10;;;2.28;;
43152;SDS011;28756;49.064;9.290;2022-10-28T09:40:35;4.55;;;1.35;;
43152;SDS011;28756;49.064;9.290;2022-10-28T09:46:18;2.83;;;1.20;;
43152;SDS011;28756;49.064;9.290;2022-10-28T09:48:50;3.67;;;1.60;;
43152;SDS011;28756;49.064;9.290;2022-10-28T09:52:22;3.83;;;1.42;;
43152;SDS011;28756;49.064;9.290;2022-10-28T09:54:50;5.40;;;1.40;;
43152;SDS011;28756;49.064;9.290;2022-10-28T09:57:18;8.48;;;1.85;;
43152;SDS011;28756;49.064;9.290;2022-10-28T09:59:54;4.60;;;1.15;;
43152;SDS011;28756;49.064;9.290;2022-10-28T10:04:56;4.40;;;1.50;;
43152;SDS011;28756;49.064;9.290;2022-10-28T10:07:43;3.65;;;1.38;;
43152;SDS011;28756;49.064;9.290;2022-10-28T10:10:24;2.50;;;1.20;;
43152;SDS011;28756;49.064;9.290;2022-10-28T10:13:07;5.55;;;1.50;;
43152;SDS011;28756;49.064;9.290;2022-10-28T10:15:42;2.85;;;1.52;;
43152;SDS011;28756;49.064;9.290;2022-10-28T10:18:26;3.97;;;1.20;;
43152;SDS011;28756;49.064;9.290;2022-10-28T10:20:57;3.50;;;1.38;;
43152;SDS011;28756;49.064;9.290;2022-10-28T10:23:30;2.55;;;1.17;;
43152;SDS011;28756;49.064;9.290;2022-10-28T10:28:51;4.10;;;1.30;;
43152;SDS011;28756;49.064;9.290;2022-10-28T10:31:19;3.58;;;1.30;;
43152;SDS011;28756;49.064;9.290;2022-10-28T10:33:56;3.85;;;1.30;;
43152;SDS011;28756;49.064;9.290;2022-10-28T10:36:23;3.08;;;1.50;;
43152;SDS011;28756;49.064;9.290;2022-10-28T10:38:56;2.38;;;1.17;;
43152;SDS011;28756;49.064;9.290;2022-10-28T10:41:31;2.40;;;1.15;;
43152;SDS011;28756;49.064;9.290;2022-10-28T10:43:58;5.38;;;2.08;;
43152;SDS011;28756;49.064;9.290;2022-10-28T10:46:24;4.05;;;2.10;;
43152;SDS011;28756;49.064;9.290;2022-10-28T10:49:05;5.97;;;2.03;;
43152;SDS011;28756;49.064;9.290;2022-10-28T10:51:36;7.82;;;2.17;;
43152;SDS011;28756;49.064;9.290;2022-10-28T10:54:05;4.40;;;2.35;;
43152;SDS011;28756;49.064;9.290;2022-10-28T10:56:39;4.47;;;1.90;;
43152;SDS011;28756;49.064;9.290;2022-10-28T10:59:05;3.92;;;1.52;;
43152;SDS011;28756;49.064;9.290;2022-10-28T11:02:01;4.57;;;1.40;;
43152;SDS011;28756;49.064;9.290;2022-10-28T11:04:46;2.88;;;1.30;;
43152;SDS011;28756;49.064;9.290;2022-10-28T11:07:21;3.03;;;1.40;;
43152;SDS011;28756;49.064;9.290;2022-10-28T11:09:47;5.28;;;1.45;;
43152;SDS011;28756;49.064;9.290;2022-10-28T11:12:25;7.28;;;1.67;;
43152;SDS011;28756;49.064;9.290;2022-10-28T11:15:00;5.68;;;1.50;;
43152;SDS011;28756;49.064;9.290;2022-10-28T11:17:28;8.15;;;2.00;;
43152;SDS011;28756;49.064;9.290;2022-10-28T11:19:57;8.02;;;1.63;;
43152;SDS011;28756;49.064;9.290;2022-10-28T11:22:43;6.45;;;2.20;;
43152;SDS011;28756;49.064;9.290;2022-10-28T11:25:52;5.22;;;1.90;;
43152;SDS011;28756;49.064;9.290;2022-10-28T11:34:19;4.68;;;1.52;;
43152;SDS011;28756;49.064;9.290;2022-10-28T11:39:44;2.65;;;1.25;;
43152;SDS011;28756;49.064;9.290;2022-10-28T11:45:32;5.18;;;1.15;;
43152;SDS011;28756;49.064;9.290;2022-10-28T11:48:13;5.07;;;1.23;;
43152;SDS011;28756;49.064;9.290;2022-10-28T11:51:18;3.97;;;1.20;;
43152;SDS011;28756;49.064;9.290;2022-10-28T11:57:06;5.68;;;1.17;;
43152;SDS011;28756;49.064;9.290;2022-10-28T12:03:28;3.13;;;1.30;;
43152;SDS011;28756;49.064;9.290;2022-10-28T12:12:01;2.58;;;1.15;;
43152;SDS011;28756;49.064;9.290;2022-10-28T12:18:21;7.30;;;1.40;;
43152;SDS011;28756;49.064;9.290;2022-10-28T12:23:42;3.67;;;1.40;;
43152;SDS011;28756;49.064;9.290;2022-10-28T12:26:12;4.63;;;1.45;;
43152;SDS011;28756;49.064;9.290;2022-10-28T12:31:28;3.25;;;1.17;;
43152;SDS011;28756;49.064;9.290;2022-10-28T12:34:08;4.75;;;1.33;;
43152;SDS011;28756;49.064;9.290;2022-10-28T12:36:40;2.80;;;1.13;;
43152;SDS011;28756;49.064;9.290;2022-10-28T12:39:21;3.60;;;1.42;;
43152;SDS011;28756;49.064;9.290;2022-10-28T12:44:56;2.20;;;0.90;;
43152;SDS011;28756;49.064;9.290;2022-10-28T12:47:32;2.55;;;1.27;;
43152;SDS011;28756;49.064;9.290;2022-10-28T12:50:26;2.47;;;1.10;;
43152;SDS011;28756;49.064;9.290;2022-10-28T12:55:36;4.65;;;1.10;;
43152;SDS011;28756;49.064;9.290;2022-10-28T12:58:19;3.45;;;1.45;;
43152;SDS011;28756;49.064;9.290;2022-10-28T13:01:10;3.28;;;0.95;;
43152;SDS011;28756;49.064;9.290;2022-10-28T13:03:40;2.60;;;1.00;;
43152;SDS011;28756;49.064;9.290;2022-10-28T13:06:21;3.22;;;0.90;;
43152;SDS011;28756;49.064;9.290;2022-10-28T13:09:33;2.75;;;1.08;;
43152;SDS011;28756;49.064;9.290;2022-10-28T13:12:44;2.72;;;1.45;;
43152;SDS011;28756;49.064;9.290;2022-10-28T13:18:09;4.85;;;1.50;;
43152;SDS011;28756;49.064;9.290;2022-10-28T13:21:23;3.58;;;1.27;;
43152;SDS011;28756;49.064;9.290;2022-10-28T13:26:43;7.13;;;1.40;;
43152;SDS011;28756;49.064;9.290;2022-10-28T13:29:20;6.40;;;1.48;;
43152;SDS011;28756;49.064;9.290;2022-10-28T13:31:53;3.13;;;1.17;;
43152;SDS011;28756;49.064;9.290;2022-10-28T13:34:21;4.53;;;1.35;;
43152;SDS011;28756;49.064;9.290;2022-10-28T13:37:01;2.83;;;1.50;;
43152;SDS011;28756;49.064;9.290;2022-10-28T13:44:47;4.78;;;1.60;;
43152;SDS011;28756;49.064;9.290;2022-10-28T13:52:39;4.65;;;1.63;;
43152;SDS011;28756;49.064;9.290;2022-10-28T13:55:21;4.60;;;1.30;;
43152;SDS011;28756;49.064;9.290;2022-10-28T13:58:03;3.80;;;1.42;;
43152;SDS011;28756;49.064;9.290;2022-10-28T14:02:59;4.60;;;1.38;;
43152;SDS011;28756;49.064;9.290;2022-10-28T14:08:14;7.78;;;1.40;;
43152;SDS011;28756;49.064;9.290;2022-10-28T14:11:01;4.53;;;1.40;;
43152;SDS011;28756;49.064;9.290;2022-10-28T14:13:53;4.53;;;1.50;;
43152;SDS011;28756;49.064;9.290;2022-10-28T14:16:26;4.35;;;1.65;;
43152;SDS011;28756;49.064;9.290;2022-10-28T14:19:01;7.57;;;1.67;;
43152;SDS011;28756;49.064;9.290;2022-10-28T14:21:50;2.67;;;1.40;;
43152;SDS011;28756;49.064;9.290;2022-10-28T14:24:39;5.22;;;1.50;;
43152;SDS011;28756;49.064;9.290;2022-10-28T14:29:46;2.03;;;1.02;;
43152;SDS011;28756;49.064;9.290;2022-10-28T14:32:40;3.33;;;1.50;;
43152;SDS011;28756;49.064;9.290;2022-10-28T14:40:18;5.38;;;1.45;;
43152;SDS011;28756;49.064;9.290;2022-10-28T14:45:58;5.53;;;1.50;;
43152;SDS011;28756;49.064;9.290;2022-10-28T14:51:17;6.30;;;1.65;;
43152;SDS011;28756;49.064;9.290;2022-10-28T14:53:50;3.50;;;1.30;;
43152;SDS011;28756;49.064;9.290;2022-10-28T14:56:25;5.10;;;1.40;;
43152;SDS011;28756;49.064;9.290;2022-10-28T14:58:56;4.70;;;1.65;;
43152;SDS011;28756;49.064;9.290;2022-10-28T15:01:51;5.35;;;1.52;;
43152;SDS011;28756;49.064;9.290;2022-10-28T15:04:42;2.88;;;1.50;;
43152;SDS011;28756;49.064;9.290;2022-10-28T15:07:11;4.85;;;1.52;;
43152;SDS011;28756;49.064;9.290;2022-10-28T15:09:40;4.07;;;1.13;;
43152;SDS011;28756;49.064;9.290;2022-10-28T15:12:12;6.13;;;1.70;;
43152;SDS011;28756;49.064;9.290;2022-10-28T15:14:47;5.97;;;1.85;;
43152;SDS011;28756;49.064;9.290;2022-10-28T15:17:21;3.58;;;1.15;;
43152;SDS011;28756;49.064;9.290;2022-10-28T15:19:53;3.75;;;1.30;;
43152;SDS011;28756;49.064;9.290;2022-10-28T15:22:23;4.30;;;1.52;;
43152;SDS011;28756;49.064;9.290;2022-10-28T15:24:52;5.53;;;1.75;;
43152;SDS011;28756;49.064;9.290;2022-10-28T15:27:27;4.25;;;1.95;;
43152;SDS011;28756;49.064;9.290;2022-10-28T15:29:56;7.82;;;2.38;;
43152;SDS011;28756;49.064;9.290;2022-10-28T15:32:27;5.43;;;2.72;;
43152;SDS011;28756;49.064;9.290;2022-10-28T15:34:55;8.57;;;3.50;;
43152;SDS011;28756;49.064;9.290;2022-10-28T15:37:22;9.27;;;4.35;;
43152;SDS011;28756;49.064;9.290;2022-10-28T15:43:02;6.40;;;3.17;;
43152;SDS011;28756;49.064;9.290;2022-10-28T15:45:49;7.00;;;3.08;;
43152;SDS011;28756;49.064;9.290;2022-10-28T15:48:18;8.77;;;3.28;;
43152;SDS011;28756;49.064;9.290;2022-10-28T15:53:43;4.90;;;2.00;;
43152;SDS011;28756;49.064;9.290;2022-10-28T15:56:22;6.72;;;2.22;;
43152;SDS011;28756;49.064;9.290;2022-10-28T16:03:58;6.35;;;2.30;;
43152;SDS011;28756;49.064;9.290;2022-10-28T16:06:28;4.40;;;1.70;;
43152;SDS011;28756;49.064;9.290;2022-10-28T16:09:18;4.50;;;1.92;;
43152;SDS011;28756;49.064;9.290;2022-10-28T16:11:56;3.97;;;1.70;;
43152;SDS011;28756;49.064;9.290;2022-10-28T16:14:37;4.70;;;1.50;;
43152;SDS011;28756;49.064;9.290;2022-10-28T16:17:18;7.25;;;2.15;;
43152;SDS011;28756;49.064;9.290;2022-10-28T16:19:52;5.38;;;2.08;;
43152;SDS011;28756;49.064;9.290;2022-10-28T16:22:18;5.45;;;1.27;;
43152;SDS011;28756;49.064;9.290;2022-10-28T16:24:47;4.60;;;1.60;;
43152;SDS011;28756;49.064;9.290;2022-10-28T16:27:35;3.42;;;1.58;;
43152;SDS011;28756;49.064;9.290;2022-10-28T16:30:00;4.28;;;1.50;;
43152;SDS011;28756;49.064;9.290;2022-10-28T16:32:26;7.82;;;1.90;;
43152;SDS011;28756;49.064;9.290;2022-10-28T16:34:57;4.05;;;1.30;;
43152;SDS011;28756;49.064;9.290;2022-10-28T16:37:24;4.05;;;1.67;;
43152;SDS011;28756;49.064;9.290;2022-10-28T16:39:52;3.53;;;1.30;;
43152;SDS011;28756;49.064;9.290;2022-10-28T16:42:19;7.38;;;2.60;;
43152;SDS011;28756;49.064;9.290;2022-10-28T16:44:46;4.38;;;1.60;;
43152;SDS011;28756;49.064;9.290;2022-10-28T16:47:15;4.32;;;1.52;;
43152;SDS011;28756;49.064;9.290;2022-10-28T16:49:43;4.28;;;1.92;;
43152;SDS011;28756;49.064;9.290;2022-10-28T16:52:16;6.00;;;1.90;;
43152;SDS011;28756;49.064;9.290;2022-10-28T16:54:45;5.28;;;1.90;;
43152;SDS011;28756;49.064;9.290;2022-10-28T16:57:11;3.38;;;1.90;;
43152;SDS011;28756;49.064;9.290;2022-10-28T16:59:37;4.70;;;1.80;;
43152;SDS011;28756;49.064;9.290;2022-10-28T17:02:03;4.25;;;1.67;;
43152;SDS011;28756;49.064;9.290;2022-10-28T17:04:38;6.03;;;1.88;;
43152;SDS011;28756;49.064;9.290;2022-10-28T17:07:04;4.68;;;1.60;;
43152;SDS011;28756;49.064;9.290;2022-10-28T17:09:29;5.43;;;2.13;;
43152;SDS011;28756;49.064;9.290;2022-10-28T17:11:55;6.07;;;2.40;;
43152;SDS011;28756;49.064;9.290;2022-10-28T17:14:21;6.15;;;2.70;;
43152;SDS011;28756;49.064;9.290;2022-10-28T17:16:46;7.75;;;2.80;;
43152;SDS011;28756;49.064;9.290;2022-10-28T17:19:12;7.88;;;3.13;;
43152;SDS011;28756;49.064;9.290;2022-10-28T17:21:40;6.22;;;2.45;;
43152;SDS011;28756;49.064;9.290;2022-10-28T17:24:06;6.28;;;2.30;;
43152;SDS011;28756;49.064;9.290;2022-10-28T17:26:32;8.07;;;3.10;;
43152;SDS011;28756;49.064;9.290;2022-10-28T17:28:58;8.07;;;2.45;;
43152;SDS011;28756;49.064;9.290;2022-10-28T17:31:23;6.10;;;2.80;;
43152;SDS011;28756;49.064;9.290;2022-10-28T17:33:51;6.00;;;2.60;;
43152;SDS011;28756;49.064;9.290;2022-10-28T17:36:18;6.85;;;2.88;;
43152;SDS011;28756;49.064;9.290;2022-10-28T17:38:44;5.00;;;3.00;;
43152;SDS011;28756;49.064;9.290;2022-10-28T17:41:12;5.22;;;2.70;;